createdAt,value
2019-02-18T00:01:52.976Z,101144.09
2019-02-18T00:04:17.447Z,101146.30
2019-02-18T00:06:41.874Z,101153.99
2019-02-18T00:09:06.415Z,101149.55
2019-02-18T00:11:30.922Z,101154.12
2019-02-18T00:13:55.352Z,101148.89
2019-02-18T00:16:19.776Z,101152.10
2019-02-18T00:18:44.186Z,101151.91
2019-02-18T00:21:08.603Z,101150.52
2019-02-18T00:23:33.012Z,101143.49
2019-02-18T00:25:57.438Z,101144.47
2019-02-18T00:28:21.850Z,101145.82
2019-02-18T00:30:46.252Z,101144.16
2019-02-18T00:33:10.687Z,101151.83
2019-02-18T00:35:35.082Z,101152.83
2019-02-18T00:37:59.489Z,101142.47
2019-02-18T00:40:23.990Z,101147.29
2019-02-18T00:42:48.384Z,101138.22
2019-02-18T00:45:13.717Z,101138.83
2019-02-18T00:47:38.153Z,101134.89
2019-02-18T00:50:02.562Z,101134.53
2019-02-18T00:52:26.981Z,101132.82
2019-02-18T00:54:51.388Z,101134.08
2019-02-18T00:57:15.786Z,101134.82
2019-02-18T00:59:40.229Z,101135.22
2019-02-18T01:02:04.762Z,101134.67
2019-02-18T01:04:29.343Z,101139.99
2019-02-18T01:06:53.762Z,101132.13
2019-02-18T01:09:18.250Z,101142.64
2019-02-18T01:11:42.643Z,101136.83
2019-02-18T01:14:07.070Z,101140.20
2019-02-18T01:16:31.562Z,101143.04
2019-02-18T01:18:55.987Z,101138.16
2019-02-18T01:21:20.396Z,101142.62
2019-02-18T01:23:44.825Z,101138.88
2019-02-18T01:26:09.309Z,101133.81
2019-02-18T01:28:33.714Z,101136.52
2019-02-18T01:30:58.129Z,101136.30
2019-02-18T01:33:22.561Z,101141.40
2019-02-18T01:35:46.979Z,101136.52
2019-02-18T01:38:11.396Z,101133.62
2019-02-18T01:40:35.815Z,101131.41
2019-02-18T01:43:00.222Z,101128.66
2019-02-18T01:45:25.182Z,101128.13
2019-02-18T01:47:49.578Z,101123.70
2019-02-18T01:50:15.244Z,101120.56
2019-02-18T01:52:39.722Z,101116.04
2019-02-18T01:55:04.687Z,101114.08
2019-02-18T01:57:29.115Z,101110.88
2019-02-18T01:59:53.604Z,101113.51
2019-02-18T02:02:18.009Z,101109.84
2019-02-18T02:04:42.427Z,101115.66
2019-02-18T02:07:06.931Z,101107.48
2019-02-18T02:09:31.333Z,101105.33
2019-02-18T02:11:55.777Z,101104.00
2019-02-18T02:14:20.233Z,101103.09
2019-02-18T02:16:44.662Z,101103.56
2019-02-18T02:19:09.056Z,101105.05
2019-02-18T02:21:33.497Z,101103.98
2019-02-18T02:23:57.902Z,101104.87
2019-02-18T02:26:22.311Z,101098.52
2019-02-18T02:28:46.713Z,101106.81
2019-02-18T02:31:11.145Z,101106.09
2019-02-18T02:33:35.551Z,101113.67
2019-02-18T02:35:59.947Z,101112.70
2019-02-18T02:38:24.383Z,101114.29
2019-02-18T02:40:48.772Z,101110.34
2019-02-18T02:43:13.290Z,101111.87
2019-02-18T02:45:37.788Z,101117.44
2019-02-18T02:48:02.231Z,101110.53
2019-02-18T02:50:26.649Z,101111.58
2019-02-18T02:52:51.084Z,101105.20
2019-02-18T02:55:15.476Z,101107.64
2019-02-18T02:57:39.892Z,101107.00
2019-02-18T03:00:12.980Z,101107.59
2019-02-18T03:02:37.377Z,101111.53
2019-02-18T03:05:01.801Z,101106.41
2019-02-18T03:07:26.212Z,101100.86
2019-02-18T03:09:50.619Z,101112.77
2019-02-18T03:12:15.031Z,101104.84
2019-02-18T03:14:39.473Z,101104.27
2019-02-18T03:17:03.880Z,101049.70
2019-02-18T03:19:28.301Z,101101.30
2019-02-18T03:21:52.695Z,101099.27
2019-02-18T03:24:17.142Z,101094.91
2019-02-18T03:26:41.555Z,101104.20
2019-02-18T03:29:31.104Z,101106.38
2019-02-18T03:31:55.534Z,101105.59
2019-02-18T03:34:32.048Z,101105.00
2019-02-18T03:36:56.449Z,101098.89
2019-02-18T03:39:20.883Z,101098.53
2019-02-18T03:41:45.291Z,101102.27
2019-02-18T03:44:09.702Z,101098.94
2019-02-18T03:46:34.150Z,101105.28
2019-02-18T03:48:58.551Z,101106.84
2019-02-18T03:51:22.968Z,101103.70
2019-02-18T03:53:47.432Z,101103.36
2019-02-18T03:56:11.868Z,101103.17
2019-02-18T03:58:36.346Z,101106.12
2019-02-18T04:01:00.903Z,101104.55
2019-02-18T04:03:25.402Z,101107.11
2019-02-18T04:05:49.808Z,101103.18
2019-02-18T04:08:14.215Z,101100.02
2019-02-18T04:10:38.610Z,101100.83
2019-02-18T04:13:03.116Z,101100.63
2019-02-18T04:15:27.519Z,101101.02
2019-02-18T04:17:51.952Z,101104.20
2019-02-18T04:20:16.372Z,101102.41
2019-02-18T04:22:40.814Z,101107.73
2019-02-18T04:25:06.787Z,101104.97
2019-02-18T04:27:31.191Z,101106.70
2019-02-18T04:29:55.631Z,101109.88
2019-02-18T04:32:20.048Z,101107.73
2019-02-18T04:34:44.455Z,101103.38
2019-02-18T04:37:08.857Z,101100.82
2019-02-18T04:39:33.367Z,101107.30
2019-02-18T04:41:57.764Z,101106.35
2019-02-18T04:44:22.196Z,101101.42
2019-02-18T04:46:46.593Z,101099.84
2019-02-18T04:49:11.030Z,101108.30
2019-02-18T04:51:35.450Z,101098.28
2019-02-18T04:53:59.886Z,101106.10
2019-02-18T04:56:24.319Z,101106.89
2019-02-18T04:58:48.704Z,101110.05
2019-02-18T05:01:13.141Z,101110.45
2019-02-18T05:03:37.540Z,101108.67
2019-02-18T05:06:01.973Z,101102.77
2019-02-18T05:08:26.387Z,101107.31
2019-02-18T05:10:50.802Z,101101.78
2019-02-18T05:13:15.202Z,101100.95
2019-02-18T05:15:40.382Z,101100.80
2019-02-18T05:18:05.132Z,101099.77
2019-02-18T05:20:29.530Z,101102.94
2019-02-18T05:22:53.968Z,101101.39
2019-02-18T05:25:18.420Z,101104.37
2019-02-18T05:27:42.859Z,101095.06
2019-02-18T05:30:09.897Z,101105.31
2019-02-18T05:32:34.327Z,101096.66
2019-02-18T05:34:58.738Z,101097.26
2019-02-18T05:37:23.173Z,101093.91
2019-02-18T05:39:47.582Z,101095.88
2019-02-18T05:42:11.989Z,101090.87
2019-02-18T05:44:36.407Z,101094.89
2019-02-18T05:47:00.821Z,101095.47
2019-02-18T05:49:25.249Z,101094.66
2019-02-18T05:51:49.648Z,101099.15
2019-02-18T05:54:14.093Z,101104.50
2019-02-18T05:56:38.511Z,101100.99
2019-02-18T05:59:02.999Z,101104.14
2019-02-18T06:01:27.440Z,101098.20
2019-02-18T06:03:51.860Z,101097.63
2019-02-18T06:06:16.258Z,101100.71
2019-02-18T06:08:40.699Z,101102.38
2019-02-18T06:11:05.128Z,101100.17
2019-02-18T06:13:29.587Z,101107.27
2019-02-18T06:15:53.994Z,101105.51
2019-02-18T06:18:18.422Z,101108.28
2019-02-18T06:20:42.865Z,101105.34
2019-02-18T06:23:07.358Z,101105.15
2019-02-18T06:25:31.868Z,101108.89
2019-02-18T06:27:56.289Z,101108.09
2019-02-18T06:30:20.721Z,101113.41
2019-02-18T06:32:45.156Z,101115.62
2019-02-18T06:35:09.734Z,101117.94
2019-02-18T06:37:34.143Z,101122.86
2019-02-18T06:39:58.591Z,101113.77
2019-02-18T06:42:23.008Z,101119.71
2019-02-18T06:44:49.100Z,101122.48
2019-02-18T06:47:13.530Z,101128.80
2019-02-18T06:49:37.943Z,101125.27
2019-02-18T06:52:02.463Z,101130.94
2019-02-18T06:54:26.885Z,101128.41
2019-02-18T06:56:52.957Z,101133.92
2019-02-18T06:59:21.956Z,101134.11
2019-02-18T07:01:59.964Z,101135.12
2019-02-18T07:04:28.718Z,101134.86
2019-02-18T07:07:06.729Z,101129.95
2019-02-18T07:09:51.203Z,101131.17
2019-02-18T07:12:15.393Z,101132.51
2019-02-18T07:14:39.803Z,101135.08
2019-02-18T07:17:04.246Z,101077.09
2019-02-18T07:19:28.750Z,101140.97
2019-02-18T07:21:53.200Z,101143.59
2019-02-18T07:24:17.618Z,101131.95
2019-02-18T07:26:42.041Z,101134.73
2019-02-18T07:29:06.552Z,101139.84
2019-02-18T07:31:30.971Z,101132.13
2019-02-18T07:33:55.426Z,101136.52
2019-02-18T07:36:19.879Z,101143.78
2019-02-18T07:38:44.277Z,101136.88
2019-02-18T07:41:08.681Z,101136.09
2019-02-18T07:43:33.131Z,101137.11
2019-02-18T07:45:57.561Z,101136.70
2019-02-18T07:48:22.098Z,101131.79
2019-02-18T07:50:46.506Z,101129.01
2019-02-18T07:53:10.945Z,101135.72
2019-02-18T07:55:35.363Z,101128.63
2019-02-18T07:57:59.806Z,101129.98
2019-02-18T08:00:24.302Z,101129.20
2019-02-18T08:02:48.816Z,101132.55
2019-02-18T08:05:13.225Z,101137.48
2019-02-18T08:07:37.631Z,101135.32
2019-02-18T08:10:11.481Z,101131.00
2019-02-18T08:12:28.246Z,101126.02
2019-02-18T08:14:52.691Z,101129.76
2019-02-18T08:17:17.110Z,101130.15
2019-02-18T08:19:41.549Z,101132.70
2019-02-18T08:22:06.005Z,101132.47
2019-02-18T08:24:30.446Z,101129.89
2019-02-18T08:26:54.863Z,101128.90
2019-02-18T08:29:19.254Z,101127.90
2019-02-18T08:31:43.670Z,101121.96
2019-02-18T08:34:08.086Z,101125.06
2019-02-18T08:36:32.487Z,101124.52
2019-02-18T08:38:56.900Z,101117.73
2019-02-18T08:41:21.294Z,101109.53
2019-02-18T08:43:45.701Z,101107.34
2019-02-18T08:46:10.097Z,101112.08
2019-02-18T08:48:34.524Z,101109.69
2019-02-18T08:50:58.906Z,101107.25
2019-02-18T08:53:23.290Z,101109.16
2019-02-18T08:55:47.711Z,101098.72
2019-02-18T08:58:12.096Z,101098.88
2019-02-18T09:00:36.632Z,101103.46
2019-02-18T09:03:01.038Z,101107.33
2019-02-18T09:05:25.481Z,101099.78
2019-02-18T09:07:49.892Z,101099.56
2019-02-18T09:10:15.258Z,101091.44
2019-02-18T09:12:39.666Z,101097.84
2019-02-18T09:15:14.345Z,101086.43
2019-02-18T09:17:44.006Z,101094.98
2019-02-18T09:23:24.841Z,101092.61
2019-02-18T09:28:25.147Z,101084.61
2019-02-18T09:33:25.517Z,101091.97
2019-02-18T09:35:50.038Z,101088.04
2019-02-18T09:38:24.365Z,101088.96
2019-02-18T09:40:58.571Z,101089.05
2019-02-18T09:46:01.031Z,101079.42
2019-02-18T09:48:25.589Z,101076.34
2019-02-18T09:50:50.046Z,101076.66
2019-02-18T09:53:14.475Z,101075.07
2019-02-18T09:55:38.988Z,101067.97
2019-02-18T09:58:03.387Z,101064.52
2019-02-18T10:00:27.801Z,101067.55
2019-02-18T10:05:28.857Z,101069.27
2019-02-18T10:07:53.300Z,101061.33
2019-02-18T10:10:31.834Z,101065.36
2019-02-18T10:15:45.589Z,101063.81
2019-02-18T10:18:10.084Z,101050.57
2019-02-18T10:20:34.761Z,101051.52
2019-02-18T10:22:59.219Z,101053.44
2019-02-18T10:27:59.492Z,101044.98
2019-02-18T10:30:23.876Z,101044.91
2019-02-18T10:33:00.298Z,101051.73
2019-02-18T10:38:01.162Z,101037.92
2019-02-18T10:40:25.574Z,101039.84
2019-02-18T10:45:26.860Z,101044.19
2019-02-18T10:47:51.281Z,101033.68
2019-02-18T10:50:15.760Z,101031.05
2019-02-18T10:52:40.269Z,101008.33
2019-02-18T10:55:19.668Z,101019.86
2019-02-18T10:57:44.094Z,101023.07
2019-02-18T11:00:28.326Z,101021.30
2019-02-18T11:02:52.749Z,101018.28
2019-02-18T11:05:17.229Z,101009.91
2019-02-18T11:07:41.673Z,101012.16
2019-02-18T11:13:03.435Z,101001.66
2019-02-18T11:15:27.874Z,100992.30
2019-02-18T11:23:05.015Z,100993.15
2019-02-18T11:25:29.513Z,100988.50
2019-02-18T11:27:53.961Z,100991.76
2019-02-18T11:33:15.754Z,100990.61
2019-02-18T11:43:36.510Z,100963.41
2019-02-18T11:46:00.916Z,100959.67
2019-02-18T11:51:01.823Z,100956.58
2019-02-18T11:53:26.278Z,100956.58
2019-02-18T11:55:50.691Z,100930.77
2019-02-18T11:58:15.271Z,100940.94
2019-02-18T12:00:39.757Z,100944.80
2019-02-18T12:08:11.487Z,100935.21
2019-02-18T12:10:35.902Z,100930.26
2019-02-18T12:13:00.320Z,100925.01
2019-02-18T12:18:00.316Z,100922.88
2019-02-18T12:23:01.181Z,100918.20
2019-02-18T12:28:01.956Z,100913.91
2019-02-18T12:30:26.457Z,100910.34
2019-02-18T12:35:30.858Z,100896.39
2019-02-18T12:37:57.997Z,100897.09
2019-02-18T12:40:22.451Z,100894.95
2019-02-18T12:47:58.934Z,100877.75
2019-02-18T12:50:23.370Z,100876.12
2019-02-18T12:52:58.477Z,100877.95
2019-02-18T12:55:23.089Z,100871.53
2019-02-18T12:57:59.800Z,100869.87
2019-02-18T13:03:00.276Z,100869.69
2019-02-18T13:05:24.718Z,100860.30
2019-02-18T13:07:49.211Z,100865.09
2019-02-18T13:12:49.874Z,100848.95
2019-02-18T13:18:11.736Z,100849.83
2019-02-18T13:20:36.180Z,100838.17
2019-02-18T13:25:36.472Z,100830.55
2019-02-18T13:28:08.289Z,100826.43
2019-02-18T13:30:32.750Z,100817.48
2019-02-18T13:32:57.221Z,100817.77
2019-02-18T13:35:21.741Z,100810.63
2019-02-18T13:37:46.155Z,100813.30
2019-02-18T13:43:07.875Z,100804.09
2019-02-18T13:48:08.781Z,100799.79
2019-02-18T13:50:33.372Z,100800.58
2019-02-18T13:52:57.782Z,100792.53
2019-02-18T14:03:14.413Z,100793.47
2019-02-18T14:08:15.639Z,100792.34
2019-02-18T14:10:40.140Z,100795.70
2019-02-18T14:13:04.675Z,100780.96
2019-02-18T14:15:29.276Z,100780.13
2019-02-18T14:17:54.151Z,100778.69
2019-02-18T14:20:18.810Z,100784.80
2019-02-18T14:22:43.382Z,100779.24
2019-02-18T14:27:54.519Z,100767.76
2019-02-18T14:33:16.257Z,100771.38
2019-02-18T14:35:40.834Z,100772.48
2019-02-18T14:38:05.397Z,100774.72
2019-02-18T14:43:05.903Z,100764.91
2019-02-18T14:45:30.383Z,100743.52
2019-02-18T14:47:54.870Z,100756.27
2019-02-18T14:50:19.517Z,100757.06
2019-02-18T14:52:51.545Z,100756.23
2019-02-18T14:57:52.194Z,100752.75
2019-02-18T15:03:14.063Z,100747.09
2019-02-18T15:05:38.542Z,100751.87
2019-02-18T15:10:44.982Z,100745.53
2019-02-18T15:13:09.415Z,100746.40
2019-02-18T15:15:33.883Z,100745.15
2019-02-18T15:17:58.606Z,100740.03
2019-02-18T15:20:23.023Z,100737.66
2019-02-18T15:22:52.798Z,100739.16
2019-02-18T15:25:17.201Z,100738.75
2019-02-18T15:27:41.669Z,100742.20
2019-02-18T15:30:26.879Z,100725.49
2019-02-18T15:33:22.452Z,100732.39
2019-02-18T15:38:23.566Z,100721.64
2019-02-18T15:46:03.254Z,100721.73
2019-02-18T15:48:48.489Z,100714.22
2019-02-18T15:51:32.380Z,100717.41
2019-02-18T15:53:56.808Z,100711.22
2019-02-18T15:56:21.280Z,100712.34
2019-02-18T15:58:45.820Z,100709.55
2019-02-18T16:01:10.324Z,100708.60
2019-02-18T16:03:34.732Z,100703.48
2019-02-18T16:05:59.146Z,100700.08
2019-02-18T16:08:23.560Z,100701.28
2019-02-18T16:10:48.258Z,100695.23
2019-02-18T16:13:12.659Z,100698.83
2019-02-18T16:15:37.085Z,100692.40
2019-02-18T16:18:01.484Z,100695.61
2019-02-18T16:20:25.916Z,100697.36
2019-02-18T16:22:50.338Z,100699.75
2019-02-18T16:28:11.743Z,100684.52
2019-02-18T16:30:36.166Z,100688.95
2019-02-18T16:33:00.596Z,100684.50
2019-02-18T16:35:45.775Z,100673.67
2019-02-18T16:38:10.198Z,100677.64
2019-02-18T16:40:34.616Z,100687.16
2019-02-18T16:45:35.950Z,100689.90
2019-02-18T16:50:43.642Z,100687.63
2019-02-18T16:53:08.058Z,100688.63
2019-02-18T16:55:32.811Z,100689.84
2019-02-18T16:57:57.253Z,100687.95
2019-02-18T17:02:57.055Z,100687.03
2019-02-18T17:05:21.517Z,100680.83
2019-02-18T17:07:45.947Z,100679.36
2019-02-18T17:10:10.432Z,100675.15
2019-02-18T17:12:34.877Z,100679.83
2019-02-18T17:14:59.586Z,100674.66
2019-02-18T17:20:20.812Z,100684.34
2019-02-18T17:22:45.317Z,100675.98
2019-02-18T17:25:29.128Z,100682.88
2019-02-18T17:27:53.567Z,100678.56
2019-02-18T17:30:17.974Z,100675.36
2019-02-18T17:32:42.398Z,100675.45
2019-02-18T17:38:03.334Z,100676.12
2019-02-18T17:40:27.827Z,100664.75
2019-02-18T17:42:52.340Z,100662.38
2019-02-18T17:45:36.090Z,100664.19
2019-02-18T17:48:00.536Z,100662.77
2019-02-18T17:50:25.026Z,100654.36
2019-02-18T17:52:49.436Z,100657.20
2019-02-18T17:58:10.889Z,100649.33
2019-02-18T18:03:10.585Z,100640.28
2019-02-18T18:05:35.018Z,100642.66
2019-02-18T18:07:59.615Z,100633.94
2019-02-18T18:15:36.352Z,100634.73
2019-02-18T18:18:00.777Z,100630.52
2019-02-18T18:20:25.214Z,100625.39
2019-02-18T18:22:56.655Z,100611.50
2019-02-18T18:25:21.103Z,100613.34
2019-02-18T18:27:45.598Z,100616.31
2019-02-18T18:33:06.981Z,100621.77
2019-02-18T18:35:51.943Z,100611.21
2019-02-18T18:40:52.273Z,100613.20
2019-02-18T18:43:16.710Z,100615.44
2019-02-18T18:45:41.163Z,100610.25
2019-02-18T18:48:05.840Z,100610.84
2019-02-18T18:53:06.305Z,100608.90
2019-02-18T18:55:30.775Z,100607.48
2019-02-18T18:57:55.192Z,100604.05
2019-02-18T19:00:40.426Z,100605.93
2019-02-18T19:08:20.049Z,100604.48
2019-02-18T19:10:44.493Z,100596.34
2019-02-18T19:13:10.779Z,100596.91
2019-02-18T19:15:49.244Z,100598.73
2019-02-18T19:18:12.187Z,100593.48
2019-02-18T19:20:36.709Z,100591.20
2019-02-18T19:23:01.119Z,100593.45
2019-02-18T19:25:37.670Z,100591.52
2019-02-18T19:28:02.096Z,100590.69
2019-02-18T19:38:36.367Z,100585.68
2019-02-18T19:41:00.821Z,100583.38
2019-02-18T19:43:25.294Z,100589.05
2019-02-18T19:48:25.992Z,100584.51
2019-02-18T19:50:50.569Z,100578.06
2019-02-18T19:53:15.115Z,100584.80
2019-02-18T19:55:39.810Z,100576.24
2019-02-18T19:58:04.384Z,100577.97
2019-02-18T20:00:28.908Z,100573.55
2019-02-18T20:02:53.510Z,100576.63
2019-02-18T20:10:30.992Z,100580.13
2019-02-18T20:12:55.500Z,100587.62
2019-02-18T20:15:19.926Z,100586.79
2019-02-18T20:17:44.490Z,100589.56
2019-02-18T20:23:05.578Z,100589.45
2019-02-18T20:25:30.027Z,100586.48
2019-02-18T20:27:54.522Z,100588.55
2019-02-18T20:30:19.028Z,100588.56
2019-02-18T20:32:43.529Z,100580.56
2019-02-18T20:40:41.073Z,100579.72
2019-02-18T20:43:05.477Z,100574.77
2019-02-18T20:45:29.980Z,100577.13
2019-02-18T20:47:54.430Z,100578.52
2019-02-18T20:50:19.054Z,100578.86
2019-02-18T20:52:43.470Z,100578.86
2019-02-18T20:58:05.085Z,100567.06
2019-02-18T21:00:29.515Z,100560.10
2019-02-18T21:02:54.021Z,100563.60
2019-02-18T21:05:18.528Z,100558.38
2019-02-18T21:07:43.018Z,100560.09
2019-02-18T21:10:28.558Z,100560.39
2019-02-18T21:12:53.055Z,100555.86
2019-02-18T21:15:17.687Z,100560.02
2019-02-18T21:17:42.186Z,100555.59
2019-02-18T21:23:03.879Z,100553.94
2019-02-18T21:30:41.181Z,100548.61
2019-02-18T21:33:05.847Z,100544.31
2019-02-18T21:35:30.373Z,100544.94
2019-02-18T21:37:54.880Z,100545.28
2019-02-18T21:40:19.309Z,100546.95
2019-02-18T21:42:43.841Z,100542.79
2019-02-18T21:48:05.725Z,100545.42
2019-02-18T21:50:30.102Z,100547.03
2019-02-18T21:52:54.518Z,100546.81
2019-02-18T21:55:19.028Z,100546.88
2019-02-18T21:57:43.544Z,100537.48
2019-02-18T22:03:04.900Z,100536.27
2019-02-18T22:05:29.309Z,100533.59
2019-02-18T22:08:00.408Z,100527.24
2019-02-18T22:10:31.158Z,100531.78
2019-02-18T22:15:31.665Z,100524.78
2019-02-18T22:17:56.186Z,100526.44
2019-02-18T22:20:20.938Z,100533.18
2019-02-18T22:22:52.339Z,100535.76
2019-02-18T22:25:29.266Z,100536.58
2019-02-18T22:30:29.929Z,100524.51
2019-02-18T22:33:01.960Z,100528.05
2019-02-18T22:35:26.357Z,100529.02
2019-02-18T22:37:50.772Z,100524.65
2019-02-18T22:40:26.433Z,100522.14
2019-02-18T22:45:27.163Z,100525.31
2019-02-18T22:50:34.547Z,100514.28
2019-02-18T22:52:58.957Z,100513.13
2019-02-18T22:55:23.354Z,100514.52
2019-02-18T22:57:47.842Z,100509.39
2019-02-18T23:00:52.488Z,100508.80
2019-02-18T23:03:16.990Z,100497.28
2019-02-18T23:05:41.498Z,100501.59
2019-02-18T23:08:05.918Z,100499.24
2019-02-18T23:13:13.029Z,100487.95
2019-02-18T23:15:37.473Z,100485.36
2019-02-18T23:18:01.912Z,100484.77
2019-02-18T23:20:26.363Z,100482.33
2019-02-18T23:28:02.955Z,100474.63
2019-02-18T23:30:27.381Z,100470.53
2019-02-18T23:35:35.313Z,100472.61
2019-02-18T23:37:59.800Z,100470.73
2019-02-18T23:40:24.217Z,100478.18
2019-02-18T23:42:59.867Z,100475.66
2019-02-18T23:45:24.287Z,100477.39
2019-02-18T23:47:48.710Z,100476.33
2019-02-18T23:50:13.129Z,100479.65
2019-02-18T23:52:37.537Z,100479.28
2019-02-18T23:55:01.971Z,100485.32
2019-02-18T23:57:26.372Z,100481.80
2019-02-18T23:59:50.792Z,100480.45
